createdAt,value
2019-03-20T09:44:33.068Z,37.82
2019-03-20T09:47:16.099Z,37.71
2019-03-20T09:49:51.665Z,37.62
2019-03-20T09:52:25.607Z,36.96
2019-03-20T09:55:00.361Z,34.97
2019-03-20T09:57:48.414Z,37.40
2019-03-20T10:00:28.695Z,35.27
2019-03-20T10:03:07.342Z,35.25
2019-03-20T10:05:42.221Z,37.75
2019-03-20T10:08:17.827Z,38.03
2019-03-20T10:10:55.696Z,38.29
2019-03-20T10:13:47.515Z,36.29
2019-03-20T10:16:35.383Z,37.40
2019-03-20T10:19:13.739Z,37.05
2019-03-20T10:21:49.063Z,37.21
2019-03-20T10:24:26.456Z,35.44
2019-03-20T10:27:02.230Z,35.20
2019-03-20T10:40:40.807Z,35.00
2019-03-20T10:43:18.248Z,35.46
2019-03-20T10:45:58.609Z,35.06
2019-03-20T10:48:37.243Z,33.48
2019-03-20T10:51:12.764Z,32.55
2019-03-20T10:53:47.158Z,30.64
2019-03-20T10:56:23.097Z,33.60
2019-03-20T10:58:59.765Z,32.00
2019-03-20T11:01:42.541Z,31.95
2019-03-20T11:04:19.329Z,31.86
2019-03-20T11:07:47.430Z,31.02
2019-03-20T11:13:41.597Z,32.11
2019-03-20T11:23:05.493Z,32.89
2019-03-20T11:30:42.675Z,32.43
2019-03-20T11:50:33.325Z,35.50
2019-03-20T11:53:16.858Z,33.47
2019-03-20T11:56:00.843Z,33.96
2019-03-20T11:58:41.383Z,33.78
2019-03-20T12:01:18.516Z,33.67
2019-03-20T12:03:56.698Z,32.43
2019-03-20T12:06:37.982Z,34.00
2019-03-20T12:09:21.208Z,34.02
2019-03-20T12:12:07.159Z,33.26
2019-03-20T12:15:00.158Z,33.93
2019-03-20T12:17:59.911Z,34.13
2019-03-20T12:20:34.893Z,32.87
2019-03-20T12:23:09.503Z,34.08
2019-03-20T12:25:43.666Z,33.87
2019-03-20T12:28:36.156Z,33.08
2019-03-20T12:31:09.847Z,33.62
2019-03-20T12:33:43.221Z,32.83
2019-03-20T12:36:16.976Z,33.39
2019-03-20T12:38:50.326Z,33.40
2019-03-20T12:41:24.941Z,33.33
2019-03-20T12:43:58.297Z,32.95
2019-03-20T12:46:41.343Z,32.61
2019-03-20T12:49:07.167Z,32.71
2019-03-20T12:51:44.134Z,33.13
2019-03-20T12:54:18.788Z,33.00
2019-03-20T12:56:53.836Z,33.23
2019-03-20T12:59:27.919Z,32.82
2019-03-20T13:02:01.196Z,32.29
2019-03-20T13:04:36.213Z,31.16
2019-03-20T13:07:09.413Z,31.91
2019-03-20T13:09:42.648Z,32.18
2019-03-20T13:12:15.988Z,31.63
2019-03-20T13:14:49.210Z,31.23
2019-03-20T13:17:22.683Z,30.99
2019-03-20T13:19:56.120Z,30.54
2019-03-20T13:22:29.295Z,31.06
2019-03-20T13:25:02.493Z,30.96
2019-03-20T13:27:35.780Z,32.28
2019-03-20T13:30:20.878Z,30.39
2019-03-20T13:32:54.249Z,31.35
2019-03-20T13:35:27.561Z,30.63
2019-03-20T13:38:02.168Z,30.78
2019-03-20T13:40:35.534Z,31.01
2019-03-20T13:43:09.109Z,31.27
2019-03-20T13:45:42.669Z,30.66
2019-03-20T13:48:16.213Z,30.44
2019-03-20T13:51:03.209Z,31.09
2019-03-20T13:53:38.342Z,32.09
2019-03-20T13:56:12.026Z,32.78
2019-03-20T13:58:46.873Z,32.72
2019-03-20T14:01:20.188Z,32.78
2019-03-20T14:03:56.986Z,32.50
2019-03-20T14:06:32.484Z,32.01
2019-03-20T14:09:08.886Z,31.95
2019-03-20T14:11:42.435Z,32.34
2019-03-20T14:14:15.986Z,32.52
2019-03-20T14:16:50.809Z,32.35
2019-03-20T14:19:24.319Z,33.18
2019-03-20T14:21:57.797Z,32.41
2019-03-20T14:24:31.642Z,33.04
2019-03-20T14:27:05.034Z,32.18
2019-03-20T14:29:39.653Z,31.83
2019-03-20T14:32:13.240Z,31.85
2019-03-20T14:34:46.780Z,32.09
2019-03-20T14:37:20.185Z,32.25
2019-03-20T14:39:53.919Z,31.94
2019-03-20T14:42:27.343Z,31.81
2019-03-20T14:45:01.378Z,32.12
2019-03-20T14:47:42.159Z,32.23
2019-03-20T14:50:14.211Z,31.94
2019-03-20T14:52:47.727Z,32.04
2019-03-20T14:55:21.214Z,32.49
2019-03-20T14:57:54.688Z,32.86
2019-03-20T15:00:29.959Z,33.55
2019-03-20T15:03:04.778Z,32.82
2019-03-20T15:05:37.847Z,33.72
2019-03-20T15:08:10.835Z,32.01
2019-03-20T15:10:46.413Z,31.98
2019-03-20T15:13:19.968Z,32.67
2019-03-20T15:16:03.930Z,32.51
2019-03-20T15:18:37.464Z,32.31
2019-03-20T15:21:11.009Z,32.90
2019-03-20T15:23:44.972Z,33.20
2019-03-20T15:26:19.359Z,32.99
2019-03-20T15:28:52.830Z,33.26
2019-03-20T15:31:26.339Z,33.12
2019-03-20T15:33:59.874Z,33.05
2019-03-20T15:36:34.256Z,33.31
2019-03-20T15:39:10.409Z,33.54
2019-03-20T15:41:44.030Z,34.08
2019-03-20T15:44:17.549Z,34.12
2019-03-20T15:46:51.239Z,34.69
2019-03-20T15:49:24.849Z,35.06
2019-03-20T15:51:59.196Z,36.22
2019-03-20T15:54:36.861Z,35.64
2019-03-20T15:57:11.443Z,35.97
2019-03-20T15:59:44.973Z,35.86
2019-03-20T16:02:18.816Z,35.92
2019-03-20T16:04:52.361Z,36.02
2019-03-20T16:07:26.138Z,36.33
2019-03-20T16:10:00.375Z,36.75
2019-03-20T16:12:34.061Z,36.85
2019-03-20T16:15:10.021Z,36.95
2019-03-20T16:17:44.194Z,37.14
2019-03-20T16:20:18.503Z,37.46
2019-03-20T16:22:52.585Z,38.17
2019-03-20T16:25:26.136Z,43.99
2019-03-20T16:27:59.705Z,37.63
2019-03-20T16:30:33.539Z,37.83
2019-03-20T16:33:07.245Z,37.99
2019-03-20T16:35:41.719Z,38.51
2019-03-20T16:38:17.710Z,38.94
2019-03-20T16:40:51.340Z,38.89
2019-03-20T16:43:25.018Z,38.93
2019-03-20T16:45:59.746Z,39.18
2019-03-20T16:48:33.568Z,39.18
2019-03-20T16:51:08.200Z,39.01
2019-03-20T16:53:41.856Z,39.25
2019-03-20T16:56:17.409Z,39.60
2019-03-20T16:58:52.347Z,39.73
2019-03-20T17:01:26.763Z,39.77
2019-03-20T17:04:01.046Z,39.67
2019-03-20T17:06:38.038Z,40.12
2019-03-20T17:09:12.757Z,40.03
2019-03-20T17:11:49.871Z,40.40
2019-03-20T17:14:37.363Z,40.67
2019-03-20T17:17:34.293Z,40.65
2019-03-20T17:20:11.906Z,40.87
2019-03-20T17:22:51.196Z,41.26
2019-03-20T17:25:30.358Z,41.53
2019-03-20T17:28:17.421Z,41.73
2019-03-20T17:31:17.771Z,41.85
2019-03-20T17:33:54.869Z,43.39
2019-03-20T17:36:35.691Z,42.51
2019-03-20T17:39:14.111Z,42.49
2019-03-20T17:42:14.706Z,42.72
2019-03-20T17:45:11.870Z,42.46
2019-03-20T17:48:22.495Z,43.64
2019-03-20T18:03:09.098Z,43.58
2019-03-20T18:05:46.036Z,44.15
2019-03-20T18:08:19.990Z,44.32
2019-03-20T18:10:54.000Z,45.01
2019-03-20T18:13:28.567Z,45.35
2019-03-20T18:16:02.969Z,45.77
2019-03-20T18:18:44.772Z,46.22
2019-03-20T18:21:21.642Z,46.47
2019-03-20T19:21:28.041Z,48.19
2019-03-20T19:24:08.357Z,47.77
2019-03-20T19:26:50.323Z,48.32
2019-03-20T19:29:49.336Z,48.10
2019-03-20T19:36:25.297Z,48.73
2019-03-20T19:46:13.150Z,47.33
2019-03-20T19:49:00.738Z,47.53
2019-03-20T19:51:50.023Z,47.35
2019-03-20T19:54:29.768Z,47.92
2019-03-20T19:57:10.311Z,47.84
2019-03-20T20:00:08.894Z,48.06
2019-03-20T20:03:10.551Z,47.85
2019-03-20T20:06:02.134Z,47.81
2019-03-20T20:09:04.584Z,47.69
2019-03-20T20:12:11.439Z,47.58
2019-03-20T20:15:26.983Z,47.36
2019-03-20T20:21:26.779Z,46.37
2019-03-20T20:24:11.280Z,46.58
2019-03-20T20:26:49.578Z,46.37
2019-03-20T20:29:30.853Z,47.15
2019-03-20T20:32:39.698Z,46.55
2019-03-20T20:43:24.164Z,45.37
2019-03-20T20:46:08.631Z,45.41
2019-03-20T20:49:02.324Z,45.89
2019-03-20T20:51:39.269Z,45.72
2019-03-20T20:54:37.937Z,45.93
2019-03-20T20:57:14.501Z,46.07
2019-03-20T20:59:53.629Z,46.34
2019-03-20T21:02:32.218Z,46.35
2019-03-20T21:05:20.697Z,46.56
2019-03-20T21:07:58.815Z,46.67
2019-03-20T21:10:34.272Z,46.37
2019-03-20T21:13:09.513Z,46.47
2019-03-20T21:15:51.468Z,46.46
2019-03-20T23:10:14.971Z,47.89
2019-03-20T23:12:52.703Z,48.10
2019-03-20T23:15:28.659Z,48.12
2019-03-20T23:18:04.243Z,48.12
2019-03-20T23:20:38.757Z,48.06
2019-03-20T23:23:13.992Z,48.24
2019-03-20T23:25:48.383Z,48.41
2019-03-20T23:28:23.477Z,48.50
2019-03-20T23:30:57.967Z,48.64
2019-03-20T23:33:32.922Z,48.73
2019-03-20T23:36:08.378Z,48.87
2019-03-20T23:38:44.034Z,49.21
2019-03-20T23:41:19.079Z,49.16
2019-03-20T23:43:54.399Z,49.42
2019-03-20T23:46:29.944Z,49.47
2019-03-20T23:49:24.798Z,49.56
2019-03-20T23:51:59.567Z,49.76
2019-03-20T23:54:47.946Z,50.06
2019-03-20T23:57:22.911Z,50.01
